Time;durP1;ratioP1;P1;durP2;ratioP2;P2;SDS_P1;SDS_P2;PMS_P1;PMS_P2;Temp;Humidity;BMP_temperature;BMP_pressure;BME280_temperature;BME280_humidity;BME280_pressure;Samples;Min_cycle;Max_cycle;Signal;HPM_P1;HPM_P2
2023/07/07 00:01:05;;;;;;;3.67;2.97;;;12.90;99.90;;;;;;478293;248;28449;-79
2023/07/07 00:03:06;;;;;;;5.20;2.63;;;12.90;99.90;;;;;;478277;248;28575;-78
2023/07/07 00:05:07;;;;;;;3.23;2.73;;;12.90;99.90;;;;;;478290;248;29014;-79
2023/07/07 00:07:08;;;;;;;3.13;2.70;;;12.90;99.90;;;;;;485995;240;28995;-78
2023/07/07 00:09:10;;;;;;;3.00;2.57;;;12.70;99.90;;;;;;488090;243;28896;-78
2023/07/07 00:11:11;;;;;;;4.53;3.30;;;12.70;99.90;;;;;;488088;243;28722;-79
2023/07/07 00:13:12;;;;;;;3.17;2.70;;;12.60;99.90;;;;;;488110;243;28209;-78
2023/07/07 00:15:13;;;;;;;6.70;2.87;;;12.70;99.90;;;;;;488069;243;28406;-78
2023/07/07 00:17:16;;;;;;;3.50;2.73;;;12.70;99.90;;;;;;488085;243;28345;-78
2023/07/07 00:19:16;;;;;;;3.53;3.23;;;12.80;99.90;;;;;;488069;243;28244;-79
2023/07/07 00:21:17;;;;;;;3.37;2.70;;;12.70;99.90;;;;;;488111;243;28253;-78
2023/07/07 00:23:18;;;;;;;3.17;2.97;;;12.70;99.90;;;;;;488095;243;28212;-78
2023/07/07 00:25:20;;;;;;;4.53;3.27;;;12.70;99.90;;;;;;488100;243;28216;-79
2023/07/07 00:27:21;;;;;;;3.07;2.77;;;12.60;99.90;;;;;;488103;243;28220;-78
2023/07/07 00:29:22;;;;;;;4.83;3.07;;;12.60;99.90;;;;;;488105;243;28227;-79
2023/07/07 00:31:23;;;;;;;3.07;2.77;;;12.60;99.90;;;;;;488107;243;28949;-79
2023/07/07 00:33:26;;;;;;;7.80;3.30;;;;;;;;;;488095;243;28849;-78
2023/07/07 00:35:27;;;;;;;6.90;3.20;;;12.50;99.90;;;;;;488117;243;26529;-79
2023/07/07 00:37:28;;;;;;;4.90;3.40;;;12.50;99.90;;;;;;488129;243;28155;-78
2023/07/07 00:39:30;;;;;;;3.17;2.87;;;12.40;99.90;;;;;;488099;243;28305;-78
2023/07/07 00:41:31;;;;;;;3.30;3.00;;;12.40;99.90;;;;;;488058;243;28236;-79
2023/07/07 00:43:32;;;;;;;3.20;2.90;;;12.40;99.90;;;;;;488086;243;28673;-79
2023/07/07 00:45:33;;;;;;;3.30;3.00;;;12.40;99.90;;;;;;488053;243;29127;-78
2023/07/07 00:47:35;;;;;;;3.73;3.33;;;12.30;99.90;;;;;;488080;243;28805;-78
2023/07/07 00:49:36;;;;;;;3.47;3.17;;;12.30;99.90;;;;;;488086;243;28627;-78
2023/07/07 00:51:37;;;;;;;4.43;2.53;;;12.30;99.90;;;;;;488098;243;28178;-79
2023/07/07 00:53:38;;;;;;;4.43;2.90;;;12.30;99.90;;;;;;488101;243;28887;-78
2023/07/07 00:55:40;;;;;;;2.90;2.63;;;12.30;99.90;;;;;;488082;243;28326;-79
2023/07/07 00:57:41;;;;;;;5.40;3.20;;;12.30;99.90;;;;;;488086;243;28433;-78
2023/07/07 00:59:42;;;;;;;4.23;3.10;;;12.30;99.90;;;;;;488095;243;28345;-78
2023/07/07 01:01:43;;;;;;;3.93;2.97;;;12.30;99.90;;;;;;488067;243;28234;-78
2023/07/07 01:03:46;;;;;;;3.00;2.70;;;;;;;;;;488064;243;28801;-78
2023/07/07 01:05:47;;;;;;;3.20;2.90;;;12.10;99.90;;;;;;488098;243;26500;-78
2023/07/07 01:07:52;;;;;;;4.13;2.97;;;12.20;99.90;;;;;;488087;243;28151;-78
2023/07/07 01:09:53;;;;;;;4.57;2.90;;;12.20;99.90;;;;;;488042;243;28845;-78
2023/07/07 01:11:54;;;;;;;4.30;3.00;;;12.20;99.90;;;;;;488070;243;28347;-79
2023/07/07 01:13:57;;;;;;;3.97;3.23;;;;;;;;;;488079;243;28276;-78
2023/07/07 01:15:58;;;;;;;3.73;2.87;;;12.10;99.90;;;;;;488088;243;27187;-78
2023/07/07 01:17:59;;;;;;;3.53;2.83;;;12.10;99.90;;;;;;488055;243;28619;-78
2023/07/07 01:20:00;;;;;;;3.57;3.23;;;12.10;99.90;;;;;;488082;243;28292;-79
2023/07/07 01:22:02;;;;;;;2.80;2.60;;;12.10;99.90;;;;;;488065;243;28945;-78
2023/07/07 01:24:03;;;;;;;3.00;2.70;;;12.10;99.90;;;;;;488093;243;28609;-78
2023/07/07 01:26:04;;;;;;;3.30;3.00;;;12.10;99.90;;;;;;487131;240;28171;-80
2023/07/07 01:28:07;;;;;;;3.27;2.97;;;12.10;99.90;;;;;;485462;245;28723;-78
2023/07/07 01:30:08;;;;;;;3.70;3.40;;;12.10;99.90;;;;;;485376;245;28742;-78
2023/07/07 01:32:08;;;;;;;3.30;3.00;;;12.10;99.90;;;;;;485365;245;28193;-78
2023/07/07 01:34:09;;;;;;;3.17;2.87;;;12.00;99.90;;;;;;485438;245;28064;-78
2023/07/07 01:36:10;;;;;;;4.10;3.20;;;12.00;99.90;;;;;;485472;241;29003;-78
2023/07/07 01:38:12;;;;;;;3.13;2.80;;;12.00;99.90;;;;;;485456;245;29140;-78
2023/07/07 01:40:13;;;;;;;5.37;3.63;;;12.00;99.90;;;;;;485444;245;29312;-78
2023/07/07 01:42:14;;;;;;;4.27;2.90;;;11.90;99.90;;;;;;485430;245;28242;-79
2023/07/07 01:44:15;;;;;;;8.43;3.13;;;11.90;99.90;;;;;;485477;245;28711;-78
2023/07/07 01:46:16;;;;;;;3.33;3.03;;;11.90;99.90;;;;;;485477;245;27956;-78
2023/07/07 01:48:18;;;;;;;4.40;3.17;;;11.90;99.90;;;;;;485454;245;29191;-78
2023/07/07 01:50:19;;;;;;;3.20;2.90;;;11.90;99.90;;;;;;485466;245;28556;-79
2023/07/07 01:52:20;;;;;;;6.03;2.90;;;11.80;99.90;;;;;;485447;245;28489;-79
2023/07/07 01:54:22;;;;;;;4.80;3.23;;;11.80;99.90;;;;;;485443;245;28485;-78
2023/07/07 01:56:23;;;;;;;4.70;3.10;;;11.70;99.90;;;;;;485475;245;28638;-78
2023/07/07 01:58:24;;;;;;;3.40;3.00;;;11.70;99.90;;;;;;485475;245;29191;-79
2023/07/07 02:00:25;;;;;;;5.47;3.70;;;11.70;99.90;;;;;;485420;245;28907;-78
2023/07/07 02:02:26;;;;;;;2.90;2.63;;;11.60;99.90;;;;;;485417;245;28834;-78
2023/07/07 02:04:28;;;;;;;5.07;3.23;;;11.60;99.90;;;;;;485428;245;28389;-78
2023/07/07 02:06:29;;;;;;;3.63;3.13;;;11.60;99.90;;;;;;485419;245;28210;-78
2023/07/07 02:08:31;;;;;;;4.70;3.93;;;11.70;99.90;;;;;;485387;245;27960;-78
2023/07/07 02:10:32;;;;;;;4.23;3.10;;;11.60;99.90;;;;;;485366;245;28842;-78
2023/07/07 02:12:33;;;;;;;3.63;3.33;;;11.60;99.90;;;;;;485368;245;28561;-78
2023/07/07 02:14:34;;;;;;;6.30;2.90;;;11.70;99.90;;;;;;485426;241;28156;-79
2023/07/07 02:16:35;;;;;;;7.03;2.97;;;11.70;99.90;;;;;;485452;245;28256;-78
2023/07/07 02:18:37;;;;;;;4.37;3.20;;;11.60;99.90;;;;;;485444;245;28492;-78
2023/07/07 02:20:38;;;;;;;3.20;2.90;;;11.60;99.90;;;;;;485408;245;29184;-79
2023/07/07 02:22:39;;;;;;;3.23;2.73;;;11.50;99.90;;;;;;485450;245;28864;-79
2023/07/07 02:24:40;;;;;;;4.27;2.97;;;11.50;99.90;;;;;;485491;245;28474;-78
2023/07/07 02:26:42;;;;;;;3.03;2.83;;;11.50;99.90;;;;;;485469;245;28588;-78
2023/07/07 02:28:43;;;;;;;3.57;3.27;;;11.50;99.90;;;;;;485482;245;28165;-77
2023/07/07 02:30:44;;;;;;;4.30;3.20;;;11.50;99.90;;;;;;485469;245;28174;-78
2023/07/07 02:32:46;;;;;;;3.07;2.80;;;11.50;99.90;;;;;;485493;241;28163;-78
2023/07/07 02:34:55;;;;;;;8.63;3.63;;;11.50;99.90;;;;;;485443;245;28100;-78
2023/07/07 02:36:48;;;;;;;3.50;3.03;;;11.50;99.90;;;;;;482311;239;28242;-78
2023/07/07 02:38:49;;;;;;;3.67;3.37;;;11.50;99.90;;;;;;478013;249;28276;-78
2023/07/07 02:40:50;;;;;;;3.70;3.10;;;11.50;99.90;;;;;;477986;249;28480;-78
2023/07/07 02:42:52;;;;;;;3.57;3.23;;;11.40;99.90;;;;;;478037;249;28332;-78
2023/07/07 02:44:53;;;;;;;3.33;2.90;;;11.30;99.90;;;;;;477955;249;28324;-78
2023/07/07 02:46:54;;;;;;;3.50;3.20;;;11.40;99.90;;;;;;477981;249;28768;-77
2023/07/07 02:48:55;;;;;;;3.63;3.10;;;11.30;99.90;;;;;;477964;249;28814;-78
2023/07/07 02:50:57;;;;;;;3.87;3.00;;;11.20;99.90;;;;;;477977;249;29054;-78
2023/07/07 02:52:58;;;;;;;4.10;3.50;;;11.20;99.90;;;;;;477940;249;28410;-78
2023/07/07 02:54:59;;;;;;;3.20;2.90;;;11.30;99.90;;;;;;477943;249;28472;-79
2023/07/07 02:57:00;;;;;;;4.30;3.30;;;11.30;99.90;;;;;;477993;249;28421;-79
2023/07/07 02:59:02;;;;;;;4.00;3.60;;;11.30;99.90;;;;;;477960;249;28381;-78
2023/07/07 03:01:03;;;;;;;3.50;3.20;;;11.30;99.90;;;;;;477955;249;28346;-78
2023/07/07 03:03:04;;;;;;;4.40;3.43;;;11.30;99.90;;;;;;477963;249;28361;-78
2023/07/07 03:05:05;;;;;;;4.00;3.60;;;11.20;99.90;;;;;;477966;249;28461;-79
2023/07/07 03:07:07;;;;;;;6.73;2.87;;;11.20;99.90;;;;;;477989;249;28869;-78
2023/07/07 03:09:08;;;;;;;2.90;2.70;;;11.20;99.90;;;;;;477977;249;28401;-79
2023/07/07 03:11:09;;;;;;;3.03;2.80;;;11.10;99.90;;;;;;477980;249;28759;-79
2023/07/07 03:13:11;;;;;;;3.30;3.00;;;11.10;99.90;;;;;;477964;249;28773;-79
2023/07/07 03:15:12;;;;;;;4.13;3.20;;;11.10;99.90;;;;;;477962;249;28232;-78
2023/07/07 03:17:16;;;;;;;3.57;3.27;;;11.10;99.90;;;;;;477987;249;28268;-78
2023/07/07 03:19:14;;;;;;;5.00;3.87;;;11.00;99.90;;;;;;477823;249;28077;-79
2023/07/07 03:21:15;;;;;;;4.00;3.60;;;11.00;99.90;;;;;;477954;249;28307;-78
2023/07/07 03:23:17;;;;;;;3.53;3.23;;;11.00;99.90;;;;;;477970;249;28219;-78
2023/07/07 03:25:20;;;;;;;3.60;3.30;;;11.00;99.90;;;;;;477948;249;27901;-78
2023/07/07 03:27:19;;;;;;;4.37;3.13;;;10.90;99.90;;;;;;495294;236;28391;-79
2023/07/07 03:29:20;;;;;;;4.37;3.20;;;10.90;99.90;;;;;;499597;237;28631;-79
2023/07/07 03:31:25;;;;;;;3.33;3.07;;;10.90;99.90;;;;;;499603;237;28422;-78
2023/07/07 03:33:23;;;;;;;4.07;3.10;;;10.90;99.90;;;;;;499188;238;28799;-78
2023/07/07 03:35:24;;;;;;;7.00;3.40;;;11.00;99.90;;;;;;499238;237;28693;-78
2023/07/07 03:37:25;;;;;;;3.30;3.00;;;11.00;99.90;;;;;;499180;237;28088;-78
2023/07/07 03:39:27;;;;;;;4.67;3.20;;;11.00;99.90;;;;;;499459;237;28110;-78
2023/07/07 03:41:28;;;;;;;3.93;3.37;;;11.10;99.90;;;;;;499536;236;28072;-78
2023/07/07 03:43:33;;;;;;;4.20;3.20;;;11.10;99.90;;;;;;499587;238;28367;-78
2023/07/07 03:45:30;;;;;;;5.10;3.60;;;11.10;99.90;;;;;;499314;238;28187;-78
2023/07/07 03:47:32;;;;;;;3.20;2.87;;;11.20;99.90;;;;;;499627;237;28192;-78
2023/07/07 03:49:33;;;;;;;3.57;3.27;;;11.20;99.90;;;;;;499597;237;28156;-78
2023/07/07 03:51:36;;;;;;;4.67;3.77;;;11.20;99.90;;;;;;499600;238;28438;-78
2023/07/07 03:53:35;;;;;;;3.77;3.40;;;11.20;99.90;;;;;;499533;238;28442;-78
2023/07/07 03:55:37;;;;;;;3.27;2.97;;;11.20;99.90;;;;;;499588;237;28754;-78
2023/07/07 03:57:38;;;;;;;4.07;3.67;;;11.20;99.90;;;;;;499614;237;28917;-78
2023/07/07 03:59:39;;;;;;;4.10;3.00;;;11.10;99.90;;;;;;499619;237;28585;-78
2023/07/07 04:01:40;;;;;;;5.10;3.47;;;11.10;99.90;;;;;;499633;237;28396;-78
2023/07/07 04:03:42;;;;;;;5.67;4.00;;;11.10;99.90;;;;;;499647;238;28332;-78
2023/07/07 04:05:43;;;;;;;4.73;3.60;;;10.90;99.90;;;;;;499606;237;28214;-79
2023/07/07 04:07:46;;;;;;;3.93;3.53;;;;;;;;;;499643;237;28273;-78
2023/07/07 04:09:47;;;;;;;4.13;3.70;;;10.90;99.90;;;;;;499612;237;27694;-78
2023/07/07 04:11:48;;;;;;;6.00;3.43;;;10.80;99.90;;;;;;499612;238;28597;-78
2023/07/07 04:13:49;;;;;;;4.00;3.33;;;10.90;99.90;;;;;;499587;237;28171;-79
2023/07/07 04:15:50;;;;;;;3.47;3.17;;;11.00;99.90;;;;;;499627;238;28363;-78
2023/07/07 04:17:52;;;;;;;4.70;3.50;;;11.10;99.90;;;;;;499623;237;28080;-78
2023/07/07 04:19:53;;;;;;;3.50;3.20;;;11.20;99.90;;;;;;499606;238;28342;-78
2023/07/07 04:21:54;;;;;;;3.67;3.30;;;11.20;99.90;;;;;;499609;237;28816;-79
2023/07/07 04:23:55;;;;;;;3.50;3.20;;;11.40;99.90;;;;;;499619;237;28524;-78
2023/07/07 04:25:57;;;;;;;4.23;3.37;;;11.40;99.90;;;;;;499611;237;28814;-78
2023/07/07 04:27:59;;;;;;;4.03;3.03;;;11.50;99.90;;;;;;499563;237;28940;-78
2023/07/07 04:29:59;;;;;;;4.57;3.70;;;11.60;99.90;;;;;;499553;237;28398;-79
2023/07/07 04:32:00;;;;;;;4.80;3.30;;;11.70;99.90;;;;;;499600;238;28164;-79
2023/07/07 04:34:02;;;;;;;3.70;3.40;;;11.80;99.90;;;;;;499586;237;28793;-78
2023/07/07 04:36:03;;;;;;;5.17;3.50;;;11.90;99.90;;;;;;499598;237;28389;-78
2023/07/07 04:38:04;;;;;;;4.57;3.60;;;11.90;99.90;;;;;;499606;237;28278;-79
2023/07/07 04:40:05;;;;;;;4.57;4.17;;;12.00;99.90;;;;;;499582;238;28300;-78
2023/07/07 04:42:07;;;;;;;3.27;2.97;;;12.00;99.90;;;;;;499581;237;28143;-78
2023/07/07 04:44:08;;;;;;;4.03;3.47;;;12.10;99.90;;;;;;499612;237;28898;-79
2023/07/07 04:46:10;;;;;;;5.13;4.00;;;;;;;;;;499612;237;28756;-78
2023/07/07 04:48:13;;;;;;;6.00;4.03;;;;;;;;;;499584;238;26742;-79
2023/07/07 04:50:14;;;;;;;7.20;4.30;;;12.00;99.90;;;;;;499586;237;27513;-79
2023/07/07 04:52:17;;;;;;;7.77;4.50;;;12.10;99.90;;;;;;499619;237;29618;-79
2023/07/07 04:54:17;;;;;;;8.10;5.80;;;12.10;99.90;;;;;;499550;237;28147;-79
2023/07/07 04:56:18;;;;;;;6.97;4.90;;;12.10;99.90;;;;;;499614;237;28172;-79
2023/07/07 04:58:19;;;;;;;6.70;5.40;;;12.20;99.90;;;;;;499578;237;28387;-79
2023/07/07 05:00:20;;;;;;;8.33;5.40;;;12.30;99.90;;;;;;499609;237;28313;-78
2023/07/07 05:02:22;;;;;;;5.30;4.80;;;12.30;99.90;;;;;;499624;237;28214;-79
2023/07/07 05:04:23;;;;;;;4.20;3.50;;;12.30;99.90;;;;;;499611;237;28056;-79
2023/07/07 05:06:24;;;;;;;5.40;4.23;;;12.30;99.90;;;;;;499595;237;28592;-78
2023/07/07 05:08:25;;;;;;;4.50;3.83;;;12.30;99.90;;;;;;499569;237;28088;-79
2023/07/07 05:10:28;;;;;;;5.97;4.57;;;;;;;;;;499573;237;29292;-79
2023/07/07 05:12:29;;;;;;;5.77;4.07;;;12.30;99.90;;;;;;499615;237;26691;-79
2023/07/07 05:14:30;;;;;;;5.00;3.43;;;12.40;99.90;;;;;;499605;237;28243;-79
2023/07/07 05:16:33;;;;;;;4.20;3.60;;;;;;;;;;499633;238;28345;-79
2023/07/07 05:18:34;;;;;;;5.23;3.53;;;12.50;99.90;;;;;;499614;237;27384;-79
2023/07/07 05:20:35;;;;;;;4.40;3.93;;;12.60;99.90;;;;;;499601;236;28386;-79
2023/07/07 05:22:36;;;;;;;3.70;3.40;;;12.60;99.90;;;;;;499622;237;28188;-79
2023/07/07 05:24:38;;;;;;;4.33;3.77;;;12.70;99.90;;;;;;499645;237;28155;-79
2023/07/07 05:26:39;;;;;;;3.33;3.03;;;12.80;99.90;;;;;;499581;237;28196;-79
2023/07/07 05:28:40;;;;;;;3.90;2.90;;;12.90;99.90;;;;;;499624;237;28236;-79
2023/07/07 05:30:41;;;;;;;4.37;3.30;;;13.00;99.90;;;;;;499642;237;28269;-78
2023/07/07 05:32:43;;;;;;;4.30;3.67;;;13.10;99.90;;;;;;499665;237;28658;-79
2023/07/07 05:34:44;;;;;;;3.80;3.50;;;13.20;99.90;;;;;;499662;237;28248;-79
2023/07/07 05:36:45;;;;;;;4.13;3.43;;;13.30;99.90;;;;;;499642;237;28170;-78
2023/07/07 05:38:46;;;;;;;6.80;3.50;;;13.40;99.90;;;;;;499633;237;28471;-79
2023/07/07 05:40:48;;;;;;;3.77;3.47;;;13.50;99.90;;;;;;499635;237;28390;-79
2023/07/07 05:42:49;;;;;;;3.53;3.23;;;13.50;99.90;;;;;;499609;238;28518;-79
2023/07/07 05:44:50;;;;;;;3.83;3.43;;;13.60;99.90;;;;;;499631;237;28549;-79
2023/07/07 05:46:51;;;;;;;3.63;3.33;;;13.60;99.90;;;;;;499628;238;28334;-78
2023/07/07 05:48:53;;;;;;;3.37;3.07;;;13.70;99.90;;;;;;499600;237;28328;-79
2023/07/07 05:50:54;;;;;;;3.50;3.10;;;13.70;99.90;;;;;;499627;237;29035;-79
2023/07/07 05:52:55;;;;;;;3.27;3.00;;;13.80;99.90;;;;;;499644;237;28777;-79
2023/07/07 05:54:57;;;;;;;3.90;3.37;;;13.90;99.90;;;;;;499604;237;29018;-79
2023/07/07 05:56:59;;;;;;;3.50;3.17;;;14.00;99.90;;;;;;499587;237;28753;-79
2023/07/07 05:58:59;;;;;;;3.80;3.10;;;14.10;99.90;;;;;;499494;238;28357;-79
2023/07/07 06:01:00;;;;;;;3.30;3.00;;;14.20;99.90;;;;;;499586;237;28483;-79
2023/07/07 06:03:01;;;;;;;3.70;3.10;;;14.20;99.90;;;;;;499643;237;28250;-79
2023/07/07 06:05:03;;;;;;;5.03;3.30;;;14.30;99.90;;;;;;499612;237;28775;-79
2023/07/07 06:07:04;;;;;;;3.40;3.10;;;14.40;99.90;;;;;;499615;238;28832;-79
2023/07/07 06:09:06;;;;;;;4.10;3.30;;;14.50;99.90;;;;;;499604;237;28923;-79
2023/07/07 06:11:07;;;;;;;4.07;3.30;;;14.50;99.90;;;;;;499528;237;28883;-79
2023/07/07 06:13:08;;;;;;;4.13;3.70;;;14.60;99.90;;;;;;499612;237;28867;-79
2023/07/07 06:15:09;;;;;;;3.50;3.03;;;14.70;99.90;;;;;;499618;238;28765;-79
2023/07/07 06:17:10;;;;;;;4.27;3.20;;;14.80;99.90;;;;;;499614;237;29326;-79
2023/07/07 06:19:11;;;;;;;5.33;3.70;;;14.80;99.90;;;;;;499592;237;29198;-79
2023/07/07 06:21:13;;;;;;;3.87;3.47;;;14.90;99.90;;;;;;499635;237;29263;-79
2023/07/07 06:23:14;;;;;;;3.43;3.20;;;15.00;99.90;;;;;;499594;237;29313;-79
2023/07/07 06:25:15;;;;;;;3.27;2.97;;;15.10;99.90;;;;;;499615;237;28789;-79
2023/07/07 06:27:17;;;;;;;3.63;3.33;;;15.10;99.90;;;;;;499651;238;28878;-79
2023/07/07 06:29:18;;;;;;;3.93;3.20;;;15.20;99.90;;;;;;499621;237;28769;-79
2023/07/07 06:31:22;;;;;;;4.83;3.40;;;15.30;99.90;;;;;;499582;237;28812;-79
2023/07/07 06:33:20;;;;;;;9.03;3.73;;;15.40;99.90;;;;;;499390;238;28764;-79
2023/07/07 06:35:22;;;;;;;3.53;3.20;;;15.60;99.90;;;;;;499623;237;28817;-79
2023/07/07 06:37:23;;;;;;;3.50;3.20;;;15.70;99.90;;;;;;499651;238;29281;-79
2023/07/07 06:39:24;;;;;;;3.50;3.20;;;15.80;99.90;;;;;;499586;238;29228;-80
2023/07/07 06:41:25;;;;;;;3.40;3.10;;;16.00;99.90;;;;;;499619;237;28903;-79
2023/07/07 06:43:27;;;;;;;3.80;2.83;;;16.20;99.90;;;;;;499641;237;28753;-79
2023/07/07 06:45:28;;;;;;;6.60;3.60;;;16.50;99.90;;;;;;499667;237;28792;-79
2023/07/07 06:47:29;;;;;;;3.17;2.83;;;17.60;99.90;;;;;;499653;237;28883;-79
2023/07/07 06:49:30;;;;;;;5.00;3.07;;;17.90;99.90;;;;;;499591;236;28763;-79
2023/07/07 06:51:32;;;;;;;5.57;2.97;;;18.10;99.90;;;;;;499573;237;28810;-79
2023/07/07 06:53:33;;;;;;;4.77;2.90;;;18.40;99.90;;;;;;499584;237;28778;-79
2023/07/07 06:55:34;;;;;;;5.87;3.07;;;18.50;99.90;;;;;;499598;237;28835;-80
2023/07/07 06:57:35;;;;;;;4.67;2.93;;;18.50;99.90;;;;;;499617;237;28806;-79
2023/07/07 06:59:37;;;;;;;5.20;2.80;;;18.40;99.90;;;;;;499620;238;29216;-79
2023/07/07 07:01:38;;;;;;;3.13;2.63;;;18.80;99.90;;;;;;499593;237;29365;-79
2023/07/07 07:03:40;;;;;;;4.60;2.80;;;18.70;99.90;;;;;;499587;237;29212;-80
2023/07/07 07:05:41;;;;;;;4.17;2.87;;;18.60;99.90;;;;;;499530;238;29252;-79
2023/07/07 07:07:42;;;;;;;3.50;2.67;;;18.90;99.90;;;;;;499596;237;28816;-79
2023/07/07 07:09:43;;;;;;;2.93;2.63;;;19.00;99.90;;;;;;499613;237;28775;-79
2023/07/07 07:11:44;;;;;;;3.80;2.80;;;18.90;99.90;;;;;;499601;238;28825;-80
2023/07/07 07:13:47;;;;;;;3.80;2.70;;;19.20;99.90;;;;;;499576;238;28799;-79
2023/07/07 07:15:47;;;;;;;4.83;2.77;;;19.40;99.90;;;;;;499496;237;28807;-79
2023/07/07 07:17:48;;;;;;;3.77;2.37;;;19.70;99.90;;;;;;499612;237;28816;-79
2023/07/07 07:19:49;;;;;;;3.97;2.80;;;19.80;99.90;;;;;;499600;237;28887;-79
2023/07/07 07:21:50;;;;;;;3.00;2.70;;;19.60;99.90;;;;;;499575;237;28797;-78
2023/07/07 07:23:52;;;;;;;4.10;2.80;;;19.60;99.90;;;;;;499564;237;29231;-79
2023/07/07 07:25:53;;;;;;;3.63;3.00;;;19.70;99.90;;;;;;499597;236;29322;-79
2023/07/07 07:27:54;;;;;;;4.30;3.10;;;19.60;99.90;;;;;;499583;238;30023;-79
2023/07/07 07:29:55;;;;;;;3.80;2.87;;;19.90;99.90;;;;;;499577;237;29271;-79
2023/07/07 07:31:57;;;;;;;4.07;2.43;;;20.00;99.90;;;;;;499577;237;28874;-79
2023/07/07 07:33:58;;;;;;;5.67;3.00;;;19.80;99.90;;;;;;499602;238;28768;-79
2023/07/07 07:35:59;;;;;;;4.43;2.80;;;20.30;99.90;;;;;;499571;237;28816;-79
2023/07/07 07:38:00;;;;;;;3.77;3.00;;;20.20;99.90;;;;;;499598;237;28787;-78
2023/07/07 07:40:02;;;;;;;2.90;2.70;;;20.00;99.90;;;;;;499554;237;28907;-79
2023/07/07 07:42:03;;;;;;;4.73;2.63;;;19.90;99.90;;;;;;499630;237;28898;-78
2023/07/07 07:44:04;;;;;;;4.70;3.10;;;19.90;99.90;;;;;;499624;237;28763;-79
2023/07/07 07:46:05;;;;;;;2.87;2.67;;;20.20;99.90;;;;;;499608;237;28795;-78
2023/07/07 07:48:07;;;;;;;3.40;2.77;;;20.40;99.90;;;;;;499604;237;28892;-78
2023/07/07 07:50:08;;;;;;;6.40;3.73;;;20.60;99.90;;;;;;499599;238;29257;-78
2023/07/07 07:52:09;;;;;;;4.23;2.73;;;20.40;99.90;;;;;;499591;237;29288;-79
2023/07/07 07:54:10;;;;;;;9.03;3.10;;;20.30;99.90;;;;;;499592;237;29216;-78
2023/07/07 07:56:12;;;;;;;3.87;3.03;;;20.80;99.90;;;;;;499568;237;28899;-79
2023/07/07 07:58:13;;;;;;;3.53;2.40;;;21.00;99.90;;;;;;499562;237;28770;-80
2023/07/07 08:00:14;;;;;;;2.97;2.57;;;21.10;99.90;;;;;;499566;237;28893;-79
2023/07/07 08:02:15;;;;;;;3.40;2.67;;;21.30;99.80;;;;;;499592;237;28888;-79
2023/07/07 08:04:18;;;;;;;4.20;3.23;;;21.30;98.70;;;;;;499596;238;28772;-78
2023/07/07 08:06:18;;;;;;;3.67;2.87;;;21.20;98.30;;;;;;499548;237;28907;-79
2023/07/07 08:08:19;;;;;;;7.33;2.87;;;21.30;98.80;;;;;;499549;237;28873;-79
2023/07/07 08:10:20;;;;;;;4.10;2.70;;;21.40;97.70;;;;;;499556;237;28898;-79
2023/07/07 08:12:22;;;;;;;10.30;3.03;;;21.30;98.30;;;;;;499572;237;28887;-79
2023/07/07 08:14:27;;;;;;;6.27;2.80;;;21.40;98.20;;;;;;499592;238;29230;-79
2023/07/07 08:16:24;;;;;;;4.13;2.80;;;21.60;96.60;;;;;;499292;238;29258;-79
2023/07/07 08:18:25;;;;;;;3.27;2.50;;;21.60;96.90;;;;;;499552;237;29286;-78
2023/07/07 08:20:27;;;;;;;3.50;2.90;;;21.30;97.50;;;;;;499560;238;28835;-79
2023/07/07 08:22:28;;;;;;;5.23;2.87;;;21.50;97.20;;;;;;499557;237;28791;-79
2023/07/07 08:24:29;;;;;;;5.80;2.87;;;21.50;97.40;;;;;;499592;237;28848;-80
2023/07/07 08:26:30;;;;;;;4.93;3.60;;;21.40;96.90;;;;;;499573;238;28833;-79
2023/07/07 08:28:32;;;;;;;4.30;2.93;;;21.70;97.20;;;;;;499578;237;28754;-80
2023/07/07 08:30:33;;;;;;;4.50;2.90;;;21.70;97.20;;;;;;499570;237;28815;-79
2023/07/07 08:32:34;;;;;;;3.10;2.53;;;21.80;96.80;;;;;;499576;237;28879;-79
2023/07/07 08:34:35;;;;;;;3.20;2.80;;;21.90;96.80;;;;;;499594;237;28889;-79
2023/07/07 08:36:37;;;;;;;3.27;2.70;;;21.90;96.90;;;;;;499585;237;28885;-79
2023/07/07 08:38:38;;;;;;;9.23;3.13;;;21.80;97.60;;;;;;499590;237;29205;-79
2023/07/07 08:40:39;;;;;;;4.17;2.67;;;22.00;96.80;;;;;;499591;237;29283;-79
2023/07/07 08:42:40;;;;;;;4.87;2.97;;;22.30;96.30;;;;;;499572;237;29217;-79
2023/07/07 08:44:42;;;;;;;4.70;3.00;;;22.60;95.40;;;;;;499587;237;28872;-80
2023/07/07 08:46:43;;;;;;;4.43;2.90;;;22.50;95.40;;;;;;499615;237;28863;-79
2023/07/07 08:48:44;;;;;;;5.10;3.23;;;22.60;94.30;;;;;;499622;237;28775;-79
2023/07/07 08:50:45;;;;;;;3.83;2.97;;;22.60;93.80;;;;;;499616;238;28821;-78
2023/07/07 08:52:47;;;;;;;4.27;3.20;;;22.50;94.30;;;;;;499597;237;28835;-80
2023/07/07 08:54:48;;;;;;;4.67;3.10;;;22.40;94.00;;;;;;499651;237;28864;-79
2023/07/07 08:56:49;;;;;;;4.23;2.97;;;22.30;95.20;;;;;;499640;237;28807;-79
2023/07/07 08:58:50;;;;;;;6.77;2.77;;;22.60;95.00;;;;;;499628;237;28745;-79
2023/07/07 09:00:52;;;;;;;4.10;2.93;;;22.80;94.90;;;;;;499604;237;28836;-78
2023/07/07 09:02:53;;;;;;;4.40;3.23;;;22.70;93.70;;;;;;499577;237;30182;-79
2023/07/07 09:04:54;;;;;;;3.10;2.80;;;22.90;94.00;;;;;;499616;237;29304;-79
2023/07/07 09:06:55;;;;;;;5.77;3.83;;;22.90;94.00;;;;;;499590;237;29363;-79
2023/07/07 09:08:57;;;;;;;5.20;2.73;;;22.90;93.00;;;;;;499598;237;28776;-79
2023/07/07 09:11:00;;;;;;;5.43;3.20;;;23.00;92.60;;;;;;499588;237;28894;-80
2023/07/07 09:12:59;;;;;;;3.53;3.10;;;23.00;92.50;;;;;;499431;237;28930;-79
2023/07/07 09:15:00;;;;;;;3.03;2.73;;;22.90;92.60;;;;;;499542;237;28792;-80
2023/07/07 09:17:02;;;;;;;3.80;2.57;;;23.00;92.70;;;;;;499566;237;28920;-78
2023/07/07 09:19:03;;;;;;;4.60;3.20;;;23.00;92.50;;;;;;499543;237;28772;-79
2023/07/07 09:21:04;;;;;;;5.43;3.37;;;23.00;92.60;;;;;;499546;237;28926;-79
2023/07/07 09:23:06;;;;;;;3.40;3.10;;;23.20;92.40;;;;;;499541;238;28902;-80
2023/07/07 09:25:07;;;;;;;4.17;2.90;;;22.90;92.60;;;;;;499580;237;28804;-80
2023/07/07 09:27:08;;;;;;;3.23;2.93;;;23.20;93.10;;;;;;499573;237;29276;-80
2023/07/07 09:29:09;;;;;;;4.20;3.50;;;23.20;93.10;;;;;;499593;237;29237;-80
2023/07/07 09:31:10;;;;;;;4.37;3.10;;;23.10;94.10;;;;;;499608;237;29395;-80
2023/07/07 09:33:12;;;;;;;4.03;3.40;;;23.20;93.70;;;;;;499563;237;29224;-80
2023/07/07 09:35:13;;;;;;;3.60;3.00;;;23.20;93.90;;;;;;499563;237;28765;-79
2023/07/07 09:37:14;;;;;;;3.67;3.03;;;23.30;92.70;;;;;;499603;237;28820;-79
2023/07/07 09:39:16;;;;;;;5.00;3.50;;;23.80;91.60;;;;;;499571;237;28877;-80
2023/07/07 09:41:17;;;;;;;3.43;3.13;;;23.80;91.30;;;;;;499580;237;28890;-79
2023/07/07 09:43:18;;;;;;;5.00;3.67;;;23.90;90.50;;;;;;499585;237;28820;-80
2023/07/07 09:45:19;;;;;;;6.13;3.50;;;23.90;90.70;;;;;;499603;237;28892;-79
2023/07/07 09:47:20;;;;;;;4.90;3.47;;;23.80;90.80;;;;;;499602;237;28898;-80
2023/07/07 09:49:22;;;;;;;4.93;3.20;;;24.00;90.50;;;;;;499607;237;28754;-79
2023/07/07 09:51:23;;;;;;;5.20;3.10;;;24.00;90.50;;;;;;499569;237;29394;-80
2023/07/07 09:53:24;;;;;;;5.20;3.80;;;24.10;90.40;;;;;;499585;237;30009;-80
2023/07/07 09:55:25;;;;;;;4.37;3.40;;;24.10;90.40;;;;;;499586;237;29295;-79
2023/07/07 09:57:27;;;;;;;5.40;3.43;;;23.90;90.10;;;;;;499607;236;29406;-79
2023/07/07 09:59:28;;;;;;;6.40;3.27;;;24.10;90.40;;;;;;499594;237;28858;-79
2023/07/07 10:01:31;;;;;;;4.90;3.70;;;24.10;90.20;;;;;;499601;237;28808;-80
2023/07/07 10:03:31;;;;;;;4.10;3.33;;;23.80;91.00;;;;;;499502;238;28851;-80
2023/07/07 10:05:32;;;;;;;4.50;3.47;;;24.10;90.00;;;;;;499591;237;28793;-80
2023/07/07 10:07:33;;;;;;;4.97;3.70;;;24.10;90.00;;;;;;499637;237;29176;-78
2023/07/07 10:09:35;;;;;;;4.97;3.40;;;24.10;90.00;;;;;;499614;237;28771;-80
2023/07/07 10:11:36;;;;;;;8.47;3.80;;;24.10;90.80;;;;;;499624;237;28880;-79
2023/07/07 10:13:37;;;;;;;4.07;3.40;;;24.30;90.20;;;;;;499577;237;28777;-79
2023/07/07 10:15:38;;;;;;;7.20;3.70;;;24.30;90.40;;;;;;499600;237;28789;-79
2023/07/07 10:17:39;;;;;;;6.43;3.57;;;24.10;90.80;;;;;;499611;237;29387;-79
2023/07/07 10:19:41;;;;;;;11.60;3.80;;;24.30;90.30;;;;;;499593;237;29316;-79
2023/07/07 10:21:42;;;;;;;4.90;3.70;;;24.50;89.40;;;;;;499595;237;29388;-80
2023/07/07 10:23:43;;;;;;;4.73;4.00;;;24.50;90.70;;;;;;499568;237;28756;-79
2023/07/07 10:25:44;;;;;;;4.60;3.67;;;24.50;90.00;;;;;;499565;237;28921;-79
2023/07/07 10:27:46;;;;;;;5.00;4.13;;;24.60;90.60;;;;;;499573;237;28907;-80
2023/07/07 10:29:47;;;;;;;5.60;3.70;;;24.80;89.00;;;;;;499589;237;28775;-79
2023/07/07 10:31:48;;;;;;;3.90;3.50;;;24.50;90.00;;;;;;499595;237;28895;-80
2023/07/07 10:33:49;;;;;;;4.93;4.10;;;24.50;90.20;;;;;;499549;237;28770;-80